sensor_id;sensor_type;location;lat;lon;timestamp;temperature;humidity
15574;DHT22;7888;46.748;8.102;2023-03-23T00:01:15;15.00;41.40
15574;DHT22;7888;46.748;8.102;2023-03-23T00:03:49;15.00;41.60
15574;DHT22;7888;46.748;8.102;2023-03-23T00:06:17;15.00;41.70
15574;DHT22;7888;46.748;8.102;2023-03-23T00:08:46;15.00;41.60
15574;DHT22;7888;46.748;8.102;2023-03-23T00:11:16;14.90;41.70
15574;DHT22;7888;46.748;8.102;2023-03-23T00:13:48;14.90;41.70
15574;DHT22;7888;46.748;8.102;2023-03-23T00:16:23;14.90;41.60
15574;DHT22;7888;46.748;8.102;2023-03-23T00:19:05;14.90;41.70
15574;DHT22;7888;46.748;8.102;2023-03-23T00:21:39;14.80;42.10
15574;DHT22;7888;46.748;8.102;2023-03-23T00:24:15;14.80;41.70
15574;DHT22;7888;46.748;8.102;2023-03-23T00:26:44;14.80;42.20
15574;DHT22;7888;46.748;8.102;2023-03-23T00:29:22;14.80;42.00
15574;DHT22;7888;46.748;8.102;2023-03-23T00:31:49;14.80;42.30
15574;DHT22;7888;46.748;8.102;2023-03-23T00:34:18;14.70;42.00
15574;DHT22;7888;46.748;8.102;2023-03-23T00:36:47;14.70;42.10
15574;DHT22;7888;46.748;8.102;2023-03-23T00:39:18;14.70;42.30
15574;DHT22;7888;46.748;8.102;2023-03-23T00:41:46;14.70;42.30
15574;DHT22;7888;46.748;8.102;2023-03-23T00:44:13;14.70;42.20
15574;DHT22;7888;46.748;8.102;2023-03-23T00:46:46;14.70;42.20
15574;DHT22;7888;46.748;8.102;2023-03-23T00:49:19;14.70;42.30
15574;DHT22;7888;46.748;8.102;2023-03-23T00:51:51;14.70;42.10
15574;DHT22;7888;46.748;8.102;2023-03-23T00:54:18;14.70;42.30
15574;DHT22;7888;46.748;8.102;2023-03-23T00:56:43;14.70;42.30
15574;DHT22;7888;46.748;8.102;2023-03-23T00:59:09;14.70;42.10
15574;DHT22;7888;46.748;8.102;2023-03-23T01:01:35;14.70;42.10
15574;DHT22;7888;46.748;8.102;2023-03-23T01:04:02;14.70;42.20
15574;DHT22;7888;46.748;8.102;2023-03-23T01:06:31;14.70;42.40
15574;DHT22;7888;46.748;8.102;2023-03-23T01:09:01;14.70;42.40
15574;DHT22;7888;46.748;8.102;2023-03-23T01:11:28;14.70;42.60
15574;DHT22;7888;46.748;8.102;2023-03-23T01:13:55;14.70;42.60
15574;DHT22;7888;46.748;8.102;2023-03-23T01:16:21;14.70;42.50
15574;DHT22;7888;46.748;8.102;2023-03-23T01:18:47;14.70;42.50
15574;DHT22;7888;46.748;8.102;2023-03-23T01:21:15;14.60;42.50
15574;DHT22;7888;46.748;8.102;2023-03-23T01:23:42;14.70;42.50
15574;DHT22;7888;46.748;8.102;2023-03-23T01:26:15;14.60;42.60
15574;DHT22;7888;46.748;8.102;2023-03-23T01:28:43;14.60;42.80
15574;DHT22;7888;46.748;8.102;2023-03-23T01:31:15;14.60;42.70
15574;DHT22;7888;46.748;8.102;2023-03-23T01:33:43;14.60;42.80
15574;DHT22;7888;46.748;8.102;2023-03-23T01:36:15;14.60;42.80
15574;DHT22;7888;46.748;8.102;2023-03-23T01:38:44;14.60;43.30
15574;DHT22;7888;46.748;8.102;2023-03-23T01:41:12;14.60;43.00
15574;DHT22;7888;46.748;8.102;2023-03-23T01:46:29;14.60;43.50
15574;DHT22;7888;46.748;8.102;2023-03-23T01:49:06;14.60;42.80
15574;DHT22;7888;46.748;8.102;2023-03-23T01:51:41;14.60;42.80
15574;DHT22;7888;46.748;8.102;2023-03-23T01:54:16;14.60;43.10
15574;DHT22;7888;46.748;8.102;2023-03-23T01:56:48;14.60;43.20
15574;DHT22;7888;46.748;8.102;2023-03-23T01:59:20;14.60;43.50
15574;DHT22;7888;46.748;8.102;2023-03-23T02:01:49;14.60;43.40
15574;DHT22;7888;46.748;8.102;2023-03-23T02:04:18;14.60;43.20
15574;DHT22;7888;46.748;8.102;2023-03-23T02:06:45;14.60;43.90
15574;DHT22;7888;46.748;8.102;2023-03-23T02:09:15;14.60;43.50
15574;DHT22;7888;46.748;8.102;2023-03-23T02:11:43;14.60;43.80
15574;DHT22;7888;46.748;8.102;2023-03-23T02:14:10;14.70;43.80
15574;DHT22;7888;46.748;8.102;2023-03-23T02:16:50;14.70;43.90
15574;DHT22;7888;46.748;8.102;2023-03-23T02:34:25;14.60;43.10
15574;DHT22;7888;46.748;8.102;2023-03-23T02:37:03;14.50;43.40
15574;DHT22;7888;46.748;8.102;2023-03-23T02:39:56;14.50;43.40
15574;DHT22;7888;46.748;8.102;2023-03-23T02:42:34;14.50;43.30
15574;DHT22;7888;46.748;8.102;2023-03-23T02:45:07;14.50;43.30
15574;DHT22;7888;46.748;8.102;2023-03-23T02:47:37;14.50;43.50
15574;DHT22;7888;46.748;8.102;2023-03-23T02:50:07;14.50;43.60
15574;DHT22;7888;46.748;8.102;2023-03-23T02:52:36;14.50;43.80
15574;DHT22;7888;46.748;8.102;2023-03-23T02:55:07;14.50;44.20
15574;DHT22;7888;46.748;8.102;2023-03-23T02:57:37;14.50;44.50
15574;DHT22;7888;46.748;8.102;2023-03-23T03:00:05;14.50;44.10
15574;DHT22;7888;46.748;8.102;2023-03-23T03:02:37;14.50;44.00
15574;DHT22;7888;46.748;8.102;2023-03-23T03:11:08;14.50;43.90
15574;DHT22;7888;46.748;8.102;2023-03-23T03:21:46;14.50;43.70
15574;DHT22;7888;46.748;8.102;2023-03-23T03:24:18;14.50;43.70
15574;DHT22;7888;46.748;8.102;2023-03-23T03:26:48;14.50;44.00
15574;DHT22;7888;46.748;8.102;2023-03-23T03:29:22;14.40;43.80
15574;DHT22;7888;46.748;8.102;2023-03-23T03:31:52;14.40;43.80
15574;DHT22;7888;46.748;8.102;2023-03-23T03:34:21;14.40;43.80
15574;DHT22;7888;46.748;8.102;2023-03-23T03:36:49;14.40;43.90
15574;DHT22;7888;46.748;8.102;2023-03-23T03:39:18;14.40;44.10
15574;DHT22;7888;46.748;8.102;2023-03-23T03:41:46;14.40;44.20
15574;DHT22;7888;46.748;8.102;2023-03-23T03:44:12;14.40;44.20
15574;DHT22;7888;46.748;8.102;2023-03-23T03:46:38;14.40;44.10
15574;DHT22;7888;46.748;8.102;2023-03-23T03:49:08;14.40;44.10
15574;DHT22;7888;46.748;8.102;2023-03-23T03:51:38;14.40;44.10
15574;DHT22;7888;46.748;8.102;2023-03-23T03:54:04;14.40;44.10
15574;DHT22;7888;46.748;8.102;2023-03-23T03:56:30;14.40;44.30
15574;DHT22;7888;46.748;8.102;2023-03-23T03:59:06;14.40;44.40
15574;DHT22;7888;46.748;8.102;2023-03-23T04:01:34;14.40;44.40
15574;DHT22;7888;46.748;8.102;2023-03-23T04:04:00;14.40;44.30
15574;DHT22;7888;46.748;8.102;2023-03-23T04:06:26;14.40;44.30
15574;DHT22;7888;46.748;8.102;2023-03-23T04:08:57;14.30;44.30
15574;DHT22;7888;46.748;8.102;2023-03-23T04:11:25;14.40;44.20
15574;DHT22;7888;46.748;8.102;2023-03-23T04:13:51;14.30;44.20
15574;DHT22;7888;46.748;8.102;2023-03-23T04:16:17;14.30;44.30
15574;DHT22;7888;46.748;8.102;2023-03-23T04:18:44;14.30;44.40
15574;DHT22;7888;46.748;8.102;2023-03-23T04:21:10;14.30;44.40
15574;DHT22;7888;46.748;8.102;2023-03-23T04:23:36;14.30;44.40
15574;DHT22;7888;46.748;8.102;2023-03-23T04:26:04;14.30;44.50
15574;DHT22;7888;46.748;8.102;2023-03-23T04:28:30;14.30;44.80
15574;DHT22;7888;46.748;8.102;2023-03-23T04:30:59;14.30;44.80
15574;DHT22;7888;46.748;8.102;2023-03-23T04:33:27;14.30;44.70
15574;DHT22;7888;46.748;8.102;2023-03-23T04:35:58;14.30;44.80
15574;DHT22;7888;46.748;8.102;2023-03-23T04:38:28;14.30;44.90
15574;DHT22;7888;46.748;8.102;2023-03-23T04:40:55;14.30;44.70
15574;DHT22;7888;46.748;8.102;2023-03-23T04:43:22;14.30;44.70
15574;DHT22;7888;46.748;8.102;2023-03-23T04:45:57;14.30;44.60
15574;DHT22;7888;46.748;8.102;2023-03-23T04:48:28;14.30;44.70
15574;DHT22;7888;46.748;8.102;2023-03-23T04:51:01;14.30;44.40
15574;DHT22;7888;46.748;8.102;2023-03-23T04:53:29;14.30;44.30
15574;DHT22;7888;46.748;8.102;2023-03-23T04:55:56;14.30;44.40
15574;DHT22;7888;46.748;8.102;2023-03-23T04:58:22;14.30;44.50
15574;DHT22;7888;46.748;8.102;2023-03-23T05:00:50;14.30;44.40
15574;DHT22;7888;46.748;8.102;2023-03-23T05:03:17;14.30;44.60
15574;DHT22;7888;46.748;8.102;2023-03-23T05:05:43;14.30;44.50
15574;DHT22;7888;46.748;8.102;2023-03-23T05:08:13;14.20;44.40
15574;DHT22;7888;46.748;8.102;2023-03-23T05:10:39;14.20;44.40
15574;DHT22;7888;46.748;8.102;2023-03-23T05:13:05;14.20;44.30
15574;DHT22;7888;46.748;8.102;2023-03-23T05:15:31;14.20;44.40
15574;DHT22;7888;46.748;8.102;2023-03-23T05:17:57;14.20;44.50
15574;DHT22;7888;46.748;8.102;2023-03-23T05:20:23;14.20;44.30
15574;DHT22;7888;46.748;8.102;2023-03-23T05:22:50;14.20;44.20
15574;DHT22;7888;46.748;8.102;2023-03-23T05:25:17;14.20;44.10
15574;DHT22;7888;46.748;8.102;2023-03-23T05:27:47;14.20;44.10
15574;DHT22;7888;46.748;8.102;2023-03-23T05:30:19;14.20;44.20
15574;DHT22;7888;46.748;8.102;2023-03-23T05:32:49;14.10;44.20
15574;DHT22;7888;46.748;8.102;2023-03-23T05:35:17;14.10;44.30
15574;DHT22;7888;46.748;8.102;2023-03-23T05:37:43;14.10;44.20
15574;DHT22;7888;46.748;8.102;2023-03-23T05:40:11;14.00;44.20
15574;DHT22;7888;46.748;8.102;2023-03-23T05:42:38;14.00;44.20
15574;DHT22;7888;46.748;8.102;2023-03-23T05:45:09;14.00;44.30
15574;DHT22;7888;46.748;8.102;2023-03-23T05:47:39;14.00;44.40
15574;DHT22;7888;46.748;8.102;2023-03-23T05:50:07;14.00;44.50
15574;DHT22;7888;46.748;8.102;2023-03-23T05:52:38;13.90;44.50
15574;DHT22;7888;46.748;8.102;2023-03-23T05:55:06;13.90;44.60
15574;DHT22;7888;46.748;8.102;2023-03-23T05:57:33;13.90;44.70
15574;DHT22;7888;46.748;8.102;2023-03-23T05:59:59;13.90;44.70
15574;DHT22;7888;46.748;8.102;2023-03-23T06:02:25;13.90;44.60
15574;DHT22;7888;46.748;8.102;2023-03-23T06:04:54;13.90;44.70
15574;DHT22;7888;46.748;8.102;2023-03-23T06:07:25;14.00;44.80
15574;DHT22;7888;46.748;8.102;2023-03-23T06:09:52;14.00;44.80
15574;DHT22;7888;46.748;8.102;2023-03-23T06:12:19;13.90;44.70
15574;DHT22;7888;46.748;8.102;2023-03-23T06:14:46;14.00;44.70
15574;DHT22;7888;46.748;8.102;2023-03-23T06:17:14;14.00;44.80
15574;DHT22;7888;46.748;8.102;2023-03-23T06:19:41;14.00;45.50
15574;DHT22;7888;46.748;8.102;2023-03-23T06:22:07;14.00;45.00
15574;DHT22;7888;46.748;8.102;2023-03-23T06:24:33;14.00;45.20
15574;DHT22;7888;46.748;8.102;2023-03-23T06:26:59;14.00;45.20
15574;DHT22;7888;46.748;8.102;2023-03-23T06:29:25;14.00;45.20
15574;DHT22;7888;46.748;8.102;2023-03-23T06:31:54;14.00;45.20
15574;DHT22;7888;46.748;8.102;2023-03-23T06:34:22;14.00;45.50
15574;DHT22;7888;46.748;8.102;2023-03-23T06:36:48;14.00;45.40
15574;DHT22;7888;46.748;8.102;2023-03-23T06:39:14;14.10;45.50
15574;DHT22;7888;46.748;8.102;2023-03-23T06:41:40;14.10;45.60
15574;DHT22;7888;46.748;8.102;2023-03-23T06:44:07;14.10;45.70
15574;DHT22;7888;46.748;8.102;2023-03-23T06:46:34;14.20;45.70
15574;DHT22;7888;46.748;8.102;2023-03-23T06:49:00;14.20;45.70
15574;DHT22;7888;46.748;8.102;2023-03-23T06:51:26;14.30;45.50
15574;DHT22;7888;46.748;8.102;2023-03-23T06:53:51;14.20;45.60
15574;DHT22;7888;46.748;8.102;2023-03-23T06:56:17;14.30;45.70
15574;DHT22;7888;46.748;8.102;2023-03-23T06:58:43;14.40;45.60
15574;DHT22;7888;46.748;8.102;2023-03-23T07:01:11;14.40;45.40
15574;DHT22;7888;46.748;8.102;2023-03-23T07:03:38;14.40;45.00
15574;DHT22;7888;46.748;8.102;2023-03-23T07:06:04;14.50;45.20
15574;DHT22;7888;46.748;8.102;2023-03-23T07:08:31;14.60;45.20
15574;DHT22;7888;46.748;8.102;2023-03-23T07:10:57;14.60;45.00
15574;DHT22;7888;46.748;8.102;2023-03-23T07:13:23;14.70;45.00
15574;DHT22;7888;46.748;8.102;2023-03-23T07:15:49;14.80;45.20
15574;DHT22;7888;46.748;8.102;2023-03-23T07:18:16;14.90;45.20
15574;DHT22;7888;46.748;8.102;2023-03-23T07:20:42;15.00;45.90
15574;DHT22;7888;46.748;8.102;2023-03-23T07:23:08;15.10;46.00
15574;DHT22;7888;46.748;8.102;2023-03-23T07:25:35;15.10;46.00
15574;DHT22;7888;46.748;8.102;2023-03-23T07:28:02;15.20;45.80
15574;DHT22;7888;46.748;8.102;2023-03-23T07:30:29;15.20;45.80
15574;DHT22;7888;46.748;8.102;2023-03-23T07:32:56;15.20;46.00
15574;DHT22;7888;46.748;8.102;2023-03-23T07:35:23;15.20;46.00
15574;DHT22;7888;46.748;8.102;2023-03-23T07:37:50;15.30;46.20
15574;DHT22;7888;46.748;8.102;2023-03-23T07:40:17;15.40;46.10
15574;DHT22;7888;46.748;8.102;2023-03-23T07:42:45;15.40;46.00
15574;DHT22;7888;46.748;8.102;2023-03-23T07:45:16;15.50;45.90
15574;DHT22;7888;46.748;8.102;2023-03-23T07:47:42;15.50;45.50
15574;DHT22;7888;46.748;8.102;2023-03-23T07:50:09;15.50;45.50
15574;DHT22;7888;46.748;8.102;2023-03-23T07:52:36;15.60;45.60
15574;DHT22;7888;46.748;8.102;2023-03-23T07:55:04;15.60;45.30
15574;DHT22;7888;46.748;8.102;2023-03-23T07:57:32;15.70;44.80
15574;DHT22;7888;46.748;8.102;2023-03-23T07:59:59;15.70;44.50
15574;DHT22;7888;46.748;8.102;2023-03-23T08:02:26;15.80;44.70
15574;DHT22;7888;46.748;8.102;2023-03-23T08:04:52;15.80;44.70
15574;DHT22;7888;46.748;8.102;2023-03-23T08:07:19;15.80;44.80
15574;DHT22;7888;46.748;8.102;2023-03-23T08:09:46;15.90;44.90
15574;DHT22;7888;46.748;8.102;2023-03-23T08:12:13;15.90;45.00
15574;DHT22;7888;46.748;8.102;2023-03-23T08:14:39;16.00;45.20
15574;DHT22;7888;46.748;8.102;2023-03-23T08:17:07;16.10;45.30
15574;DHT22;7888;46.748;8.102;2023-03-23T08:19:35;16.20;45.30
15574;DHT22;7888;46.748;8.102;2023-03-23T08:22:03;16.30;45.30
15574;DHT22;7888;46.748;8.102;2023-03-23T08:24:30;16.40;45.30
15574;DHT22;7888;46.748;8.102;2023-03-23T08:26:58;16.50;45.20
15574;DHT22;7888;46.748;8.102;2023-03-23T08:29:25;16.50;44.90
15574;DHT22;7888;46.748;8.102;2023-03-23T08:31:52;16.60;44.70
15574;DHT22;7888;46.748;8.102;2023-03-23T08:34:19;16.60;44.70
15574;DHT22;7888;46.748;8.102;2023-03-23T08:36:45;16.70;44.80
15574;DHT22;7888;46.748;8.102;2023-03-23T08:39:12;16.70;44.90
15574;DHT22;7888;46.748;8.102;2023-03-23T08:41:40;16.80;44.90
15574;DHT22;7888;46.748;8.102;2023-03-23T08:44:06;16.90;45.10
15574;DHT22;7888;46.748;8.102;2023-03-23T08:46:34;16.90;45.10
15574;DHT22;7888;46.748;8.102;2023-03-23T08:49:00;17.00;44.90
15574;DHT22;7888;46.748;8.102;2023-03-23T08:51:26;17.10;44.70
15574;DHT22;7888;46.748;8.102;2023-03-23T08:53:53;17.20;44.40
15574;DHT22;7888;46.748;8.102;2023-03-23T08:56:19;17.20;44.00
15574;DHT22;7888;46.748;8.102;2023-03-23T08:58:45;17.30;44.00
15574;DHT22;7888;46.748;8.102;2023-03-23T09:01:12;17.40;43.90
15574;DHT22;7888;46.748;8.102;2023-03-23T09:03:38;17.50;43.80
15574;DHT22;7888;46.748;8.102;2023-03-23T09:06:07;17.50;43.80
15574;DHT22;7888;46.748;8.102;2023-03-23T09:08:36;17.60;43.60
15574;DHT22;7888;46.748;8.102;2023-03-23T09:11:04;17.60;43.80
15574;DHT22;7888;46.748;8.102;2023-03-23T09:13:35;17.60;43.40
15574;DHT22;7888;46.748;8.102;2023-03-23T09:16:02;17.70;43.30
15574;DHT22;7888;46.748;8.102;2023-03-23T09:18:29;17.70;43.30
15574;DHT22;7888;46.748;8.102;2023-03-23T09:20:58;17.70;43.50
15574;DHT22;7888;46.748;8.102;2023-03-23T09:23:25;17.80;43.60
15574;DHT22;7888;46.748;8.102;2023-03-23T09:25:52;17.90;43.40
15574;DHT22;7888;46.748;8.102;2023-03-23T09:28:18;17.90;43.30
15574;DHT22;7888;46.748;8.102;2023-03-23T09:30:45;18.00;43.40
15574;DHT22;7888;46.748;8.102;2023-03-23T09:33:13;18.10;43.20
15574;DHT22;7888;46.748;8.102;2023-03-23T09:35:40;18.20;43.20
15574;DHT22;7888;46.748;8.102;2023-03-23T09:38:08;18.30;43.30
15574;DHT22;7888;46.748;8.102;2023-03-23T09:41:29;18.40;43.40
15574;DHT22;7888;46.748;8.102;2023-03-23T09:48:54;18.70;42.70
15574;DHT22;7888;46.748;8.102;2023-03-23T09:51:41;18.80;42.70
15574;DHT22;7888;46.748;8.102;2023-03-23T09:56:39;19.00;42.90
15574;DHT22;7888;46.748;8.102;2023-03-23T09:59:15;19.10;43.00
15574;DHT22;7888;46.748;8.102;2023-03-23T10:01:51;19.20;42.70
15574;DHT22;7888;46.748;8.102;2023-03-23T10:04:38;19.40;42.70
15574;DHT22;7888;46.748;8.102;2023-03-23T10:07:15;19.50;42.30
15574;DHT22;7888;46.748;8.102;2023-03-23T10:09:45;19.60;42.10
15574;DHT22;7888;46.748;8.102;2023-03-23T10:15:38;19.80;41.60
15574;DHT22;7888;46.748;8.102;2023-03-23T10:18:24;19.90;41.60
15574;DHT22;7888;46.748;8.102;2023-03-23T10:26:32;20.30;40.60
15574;DHT22;7888;46.748;8.102;2023-03-23T10:29:19;20.40;40.10
15574;DHT22;7888;46.748;8.102;2023-03-23T10:32:08;20.50;40.30
15574;DHT22;7888;46.748;8.102;2023-03-23T10:34:41;20.50;39.70
15574;DHT22;7888;46.748;8.102;2023-03-23T10:37:23;20.70;40.00
15574;DHT22;7888;46.748;8.102;2023-03-23T10:39:58;20.80;39.50
15574;DHT22;7888;46.748;8.102;2023-03-23T10:42:29;20.80;39.50
15574;DHT22;7888;46.748;8.102;2023-03-23T10:45:09;20.90;39.30
15574;DHT22;7888;46.748;8.102;2023-03-23T10:47:44;21.00;39.50
15574;DHT22;7888;46.748;8.102;2023-03-23T10:50:17;21.10;39.50
15574;DHT22;7888;46.748;8.102;2023-03-23T10:52:50;21.10;39.40
15574;DHT22;7888;46.748;8.102;2023-03-23T10:55:21;21.20;38.90
15574;DHT22;7888;46.748;8.102;2023-03-23T10:58:01;21.20;38.50
15574;DHT22;7888;46.748;8.102;2023-03-23T11:00:29;21.30;37.80
15574;DHT22;7888;46.748;8.102;2023-03-23T11:05:36;21.40;38.20
15574;DHT22;7888;46.748;8.102;2023-03-23T11:08:22;21.40;38.00
15574;DHT22;7888;46.748;8.102;2023-03-23T11:11:07;21.50;37.90
15574;DHT22;7888;46.748;8.102;2023-03-23T11:13:40;21.50;38.10
15574;DHT22;7888;46.748;8.102;2023-03-23T11:16:25;21.60;38.20
15574;DHT22;7888;46.748;8.102;2023-03-23T11:18:54;21.70;38.10
15574;DHT22;7888;46.748;8.102;2023-03-23T11:21:22;21.80;38.70
15574;DHT22;7888;46.748;8.102;2023-03-23T11:23:52;21.90;38.40
15574;DHT22;7888;46.748;8.102;2023-03-23T11:26:29;22.00;38.10
15574;DHT22;7888;46.748;8.102;2023-03-23T11:29:32;22.10;38.10
15574;DHT22;7888;46.748;8.102;2023-03-23T11:32:05;22.20;37.80
15574;DHT22;7888;46.748;8.102;2023-03-23T11:34:42;22.20;36.80
15574;DHT22;7888;46.748;8.102;2023-03-23T11:45:37;22.50;35.60
15574;DHT22;7888;46.748;8.102;2023-03-23T11:48:32;22.60;35.10
15574;DHT22;7888;46.748;8.102;2023-03-23T11:51:18;22.70;35.30
15574;DHT22;7888;46.748;8.102;2023-03-23T11:57:10;22.90;35.60
15574;DHT22;7888;46.748;8.102;2023-03-23T11:59:38;22.90;35.70
15574;DHT22;7888;46.748;8.102;2023-03-23T12:02:28;23.00;35.90
15574;DHT22;7888;46.748;8.102;2023-03-23T12:05:30;23.00;34.80
15574;DHT22;7888;46.748;8.102;2023-03-23T12:08:23;23.10;34.60
15574;DHT22;7888;46.748;8.102;2023-03-23T12:17:22;23.30;34.50
15574;DHT22;7888;46.748;8.102;2023-03-23T12:20:01;23.40;34.10
15574;DHT22;7888;46.748;8.102;2023-03-23T12:23:05;23.50;34.20
15574;DHT22;7888;46.748;8.102;2023-03-23T12:31:56;23.80;33.50
15574;DHT22;7888;46.748;8.102;2023-03-23T12:49:21;24.30;32.60
15574;DHT22;7888;46.748;8.102;2023-03-23T12:51:55;24.40;32.50
15574;DHT22;7888;46.748;8.102;2023-03-23T12:54:42;24.50;32.60
15574;DHT22;7888;46.748;8.102;2023-03-23T12:57:31;24.50;32.50
15574;DHT22;7888;46.748;8.102;2023-03-23T13:00:06;24.40;32.10
15574;DHT22;7888;46.748;8.102;2023-03-23T13:03:37;24.40;32.50
15574;DHT22;7888;46.748;8.102;2023-03-23T13:11:35;24.50;31.40
15574;DHT22;7888;46.748;8.102;2023-03-23T13:23:23;24.60;31.60
15574;DHT22;7888;46.748;8.102;2023-03-23T13:29:05;24.70;31.70
15574;DHT22;7888;46.748;8.102;2023-03-23T13:31:40;24.80;31.80
15574;DHT22;7888;46.748;8.102;2023-03-23T13:34:22;24.80;31.90
15574;DHT22;7888;46.748;8.102;2023-03-23T13:36:57;24.80;30.90
15574;DHT22;7888;46.748;8.102;2023-03-23T13:39:30;24.80;30.90
15574;DHT22;7888;46.748;8.102;2023-03-23T13:49:59;24.60;31.70
15574;DHT22;7888;46.748;8.102;2023-03-23T13:52:53;24.50;31.90
15574;DHT22;7888;46.748;8.102;2023-03-23T14:00:49;24.10;32.10
15574;DHT22;7888;46.748;8.102;2023-03-23T14:06:07;23.90;31.90
15574;DHT22;7888;46.748;8.102;2023-03-23T14:08:44;23.90;32.30
15574;DHT22;7888;46.748;8.102;2023-03-23T14:11:27;23.80;32.50
15574;DHT22;7888;46.748;8.102;2023-03-23T14:16:37;23.70;32.50
15574;DHT22;7888;46.748;8.102;2023-03-23T14:19:29;23.60;32.30
15574;DHT22;7888;46.748;8.102;2023-03-23T14:22:00;23.60;32.20
15574;DHT22;7888;46.748;8.102;2023-03-23T14:24:33;23.60;32.60
15574;DHT22;7888;46.748;8.102;2023-03-23T14:27:20;23.50;32.30
15574;DHT22;7888;46.748;8.102;2023-03-23T14:30:01;23.50;32.20
15574;DHT22;7888;46.748;8.102;2023-03-23T14:32:31;23.50;31.90
15574;DHT22;7888;46.748;8.102;2023-03-23T14:35:00;23.50;32.50
15574;DHT22;7888;46.748;8.102;2023-03-23T14:37:33;23.40;32.70
15574;DHT22;7888;46.748;8.102;2023-03-23T14:40:01;23.40;33.00
15574;DHT22;7888;46.748;8.102;2023-03-23T14:42:34;23.40;33.00
15574;DHT22;7888;46.748;8.102;2023-03-23T14:45:04;23.30;33.00
15574;DHT22;7888;46.748;8.102;2023-03-23T14:47:34;23.20;32.70
15574;DHT22;7888;46.748;8.102;2023-03-23T14:50:06;23.20;32.80
15574;DHT22;7888;46.748;8.102;2023-03-23T14:52:48;23.20;32.90
15574;DHT22;7888;46.748;8.102;2023-03-23T14:55:16;23.10;33.00
15574;DHT22;7888;46.748;8.102;2023-03-23T14:57:45;23.10;33.20
15574;DHT22;7888;46.748;8.102;2023-03-23T15:00:23;23.00;33.20
15574;DHT22;7888;46.748;8.102;2023-03-23T15:02:57;22.90;33.20
15574;DHT22;7888;46.748;8.102;2023-03-23T15:05:29;22.90;33.40
15574;DHT22;7888;46.748;8.102;2023-03-23T15:08:05;22.80;33.20
15574;DHT22;7888;46.748;8.102;2023-03-23T15:10:33;22.80;33.30
15574;DHT22;7888;46.748;8.102;2023-03-23T15:12:59;22.70;33.40
15574;DHT22;7888;46.748;8.102;2023-03-23T15:15:28;22.70;33.80
15574;DHT22;7888;46.748;8.102;2023-03-23T15:17:56;22.70;34.20
15574;DHT22;7888;46.748;8.102;2023-03-23T15:20:30;22.60;34.50
15574;DHT22;7888;46.748;8.102;2023-03-23T15:23:16;22.60;35.10
15574;DHT22;7888;46.748;8.102;2023-03-23T15:25:51;22.60;34.90
15574;DHT22;7888;46.748;8.102;2023-03-23T15:28:32;22.70;35.20
15574;DHT22;7888;46.748;8.102;2023-03-23T15:31:04;22.60;35.60
15574;DHT22;7888;46.748;8.102;2023-03-23T15:33:39;22.60;35.30
15574;DHT22;7888;46.748;8.102;2023-03-23T15:36:15;22.60;35.00
15574;DHT22;7888;46.748;8.102;2023-03-23T15:38:45;22.60;35.00
15574;DHT22;7888;46.748;8.102;2023-03-23T15:41:24;22.50;35.20
15574;DHT22;7888;46.748;8.102;2023-03-23T15:43:56;22.50;35.40
15574;DHT22;7888;46.748;8.102;2023-03-23T15:46:25;22.50;35.20
15574;DHT22;7888;46.748;8.102;2023-03-23T15:51:27;22.30;34.90
15574;DHT22;7888;46.748;8.102;2023-03-23T15:53:56;22.30;35.10
15574;DHT22;7888;46.748;8.102;2023-03-23T15:56:23;22.20;35.30
15574;DHT22;7888;46.748;8.102;2023-03-23T15:58:50;22.20;35.60
15574;DHT22;7888;46.748;8.102;2023-03-23T16:01:22;22.20;35.50
15574;DHT22;7888;46.748;8.102;2023-03-23T16:03:56;22.10;35.80
15574;DHT22;7888;46.748;8.102;2023-03-23T16:06:32;22.10;36.10
15574;DHT22;7888;46.748;8.102;2023-03-23T16:09:00;22.10;36.10
15574;DHT22;7888;46.748;8.102;2023-03-23T16:11:29;22.10;36.10
15574;DHT22;7888;46.748;8.102;2023-03-23T16:13:56;22.00;36.10
15574;DHT22;7888;46.748;8.102;2023-03-23T16:16:34;22.00;36.20
15574;DHT22;7888;46.748;8.102;2023-03-23T16:19:08;22.00;36.40
15574;DHT22;7888;46.748;8.102;2023-03-23T16:21:36;22.00;36.10
15574;DHT22;7888;46.748;8.102;2023-03-23T16:24:02;21.90;36.00
15574;DHT22;7888;46.748;8.102;2023-03-23T16:26:28;21.90;36.10
15574;DHT22;7888;46.748;8.102;2023-03-23T16:28:54;21.80;36.30
15574;DHT22;7888;46.748;8.102;2023-03-23T16:31:21;21.80;36.30
15574;DHT22;7888;46.748;8.102;2023-03-23T16:33:47;21.70;36.30
15574;DHT22;7888;46.748;8.102;2023-03-23T16:36:13;21.70;36.60
15574;DHT22;7888;46.748;8.102;2023-03-23T16:38:40;21.60;36.80
15574;DHT22;7888;46.748;8.102;2023-03-23T16:41:07;21.60;37.30
15574;DHT22;7888;46.748;8.102;2023-03-23T16:43:34;21.60;37.40
15574;DHT22;7888;46.748;8.102;2023-03-23T16:46:00;21.50;37.80
15574;DHT22;7888;46.748;8.102;2023-03-23T16:48:26;21.50;38.00
15574;DHT22;7888;46.748;8.102;2023-03-23T16:50:52;21.50;38.00
15574;DHT22;7888;46.748;8.102;2023-03-23T16:53:19;21.40;37.80
15574;DHT22;7888;46.748;8.102;2023-03-23T16:55:46;21.40;37.50
15574;DHT22;7888;46.748;8.102;2023-03-23T16:58:14;21.40;37.70
15574;DHT22;7888;46.748;8.102;2023-03-23T17:00:40;21.30;37.50
15574;DHT22;7888;46.748;8.102;2023-03-23T17:03:07;21.30;37.20
15574;DHT22;7888;46.748;8.102;2023-03-23T17:05:35;21.20;36.90
15574;DHT22;7888;46.748;8.102;2023-03-23T17:08:02;21.20;37.00
15574;DHT22;7888;46.748;8.102;2023-03-23T17:10:30;21.10;37.80
15574;DHT22;7888;46.748;8.102;2023-03-23T17:12:56;21.10;38.30
15574;DHT22;7888;46.748;8.102;2023-03-23T17:15:22;21.10;38.60
15574;DHT22;7888;46.748;8.102;2023-03-23T17:17:52;21.10;39.20
15574;DHT22;7888;46.748;8.102;2023-03-23T17:20:19;21.00;38.90
15574;DHT22;7888;46.748;8.102;2023-03-23T17:22:45;21.00;38.00
15574;DHT22;7888;46.748;8.102;2023-03-23T17:25:11;20.90;37.60
15574;DHT22;7888;46.748;8.102;2023-03-23T17:27:38;20.90;37.80
15574;DHT22;7888;46.748;8.102;2023-03-23T17:30:08;20.80;38.00
15574;DHT22;7888;46.748;8.102;2023-03-23T17:32:34;20.80;37.90
15574;DHT22;7888;46.748;8.102;2023-03-23T17:35:01;20.80;38.30
15574;DHT22;7888;46.748;8.102;2023-03-23T17:37:30;20.70;38.60
15574;DHT22;7888;46.748;8.102;2023-03-23T17:39:56;20.70;38.90
15574;DHT22;7888;46.748;8.102;2023-03-23T17:42:22;20.60;39.10
15574;DHT22;7888;46.748;8.102;2023-03-23T17:44:48;20.60;39.20
15574;DHT22;7888;46.748;8.102;2023-03-23T17:47:14;20.60;39.40
15574;DHT22;7888;46.748;8.102;2023-03-23T17:49:40;20.50;39.40
15574;DHT22;7888;46.748;8.102;2023-03-23T17:52:06;20.50;39.20
15574;DHT22;7888;46.748;8.102;2023-03-23T17:54:32;20.50;39.60
15574;DHT22;7888;46.748;8.102;2023-03-23T17:56:58;20.40;39.80
15574;DHT22;7888;46.748;8.102;2023-03-23T17:59:25;20.30;40.00
15574;DHT22;7888;46.748;8.102;2023-03-23T18:01:51;20.30;39.90
15574;DHT22;7888;46.748;8.102;2023-03-23T18:04:18;20.30;40.20
15574;DHT22;7888;46.748;8.102;2023-03-23T18:06:44;20.20;40.20
15574;DHT22;7888;46.748;8.102;2023-03-23T18:09:10;20.20;40.40
15574;DHT22;7888;46.748;8.102;2023-03-23T18:11:36;20.10;40.50
15574;DHT22;7888;46.748;8.102;2023-03-23T18:14:02;20.10;40.80
15574;DHT22;7888;46.748;8.102;2023-03-23T18:16:28;20.00;40.70